Licenciado Adolfo Lopez Mateos International Airport
MMTO : rendu visible

Aérodrome :











RETROUVEZ-NOUS SUR...

 
LOGIN :

S'inscrire | Disclaimer

   EN    FR    IT 

 









Légende :    VFR   VFR Marginal   IFR   IFR Intensif   IFR Très Intensif
Visi : 
Plafond : 
>= 8 km
>= 3000ft
5 à 8 km
1000 à 3000 ft
1500m à 5 km
500 à 1000 ft
800 à 1500m
200 à 500 ft
< 800m
< 200 ft
Symboles :   Orages  Brouillard  Fortes neiges  Fortes précipitations  Vent > 20 kt






- Altitude de l'aérodrome : 8466 ft
- Code IATA : TLC


MMTO - Licenciado Adolfo Lopez Mateos International

DERNIER METAR :
  • 250046Z 18010KT 7SM SCT015 22/00 A3021 RMK 8/400

METARs EXPIRÉS :
  • 242347Z 18012KT 6SM SCT015 BKN070 BKN200 23/00 A3020 RMK SLP/// 5//// 9// 8/463 HZY
  • 242246Z 15009KT 6SM BKN015CB BKN070 BKN200 23/01 A3021 RMK 8/963 HZY PCPN DSNT W

TAF TAF MMTO
Valide du 25 à 00h jusqu'au 26 à 06h UTC


242254Z 2500/2606 30008KT 6SM -TSRA BKN015CB TN08/2512Z TX26/2520Z
FM250200 00000KT 5SM HZ SCT015 SCT200
BECMG 2503/2504 SKC
FM251000 00000KT 4SM BR HZ SKC
TEMPO 2511/2515 3SM BR HZ SCT010
FM251700 23010KT 5SM HZ SCT015
TEMPO 2521/2601 SCT015CB
FM260200 29006KT 4SM HZ SKC
FIR MMFR / Amérique du Nord



MET'MAP, la Météo Aéronautique d'un coup d'oeil ! - Copyright ORBIFLY Décembre 2007 - Disclaimer

ORBIFLY MET'MAP TEAM :

Programmation & Développement : Alexandra Zaïnal
Sur une idée originale de : Baudouin d'Aumeries
Assistance à la programmation : Marc-Olivier Méhu
Soutien technique & logistique : Manuel Goepfert

Contact : metmap@orbifly.com




SOURCES & CREDITS :

   NOAA       Earth
Advisory